createdAt,value
2022-11-03T00:03:34.420Z,100902.56
2022-11-03T00:08:41.049Z,100895.31
2022-11-03T00:13:43.646Z,100896.66
2022-11-03T00:18:45.163Z,100875.31
2022-11-03T00:23:46.953Z,100886.94
2022-11-03T00:28:50.289Z,100877.22
2022-11-03T00:33:52.092Z,100873.91
2022-11-03T00:38:53.726Z,100872.19
2022-11-03T00:43:55.477Z,100861.38
2022-11-03T00:48:57.040Z,100860.91
2022-11-03T00:54:00.595Z,100855.56
2022-11-03T00:59:02.699Z,100843.38
2022-11-03T01:04:23.199Z,100840.41
2022-11-03T01:09:30.649Z,100842.69
2022-11-03T01:14:33.460Z,100842.63
2022-11-03T01:19:35.130Z,100855.00
2022-11-03T01:24:36.718Z,100853.31
2022-11-03T01:29:38.267Z,100851.88
2022-11-03T01:34:40.059Z,100842.41
2022-11-03T01:39:41.547Z,100851.03
2022-11-03T01:44:49.025Z,100840.47
2022-11-03T01:49:53.159Z,100850.44
2022-11-03T01:55:01.103Z,100841.69
2022-11-03T02:00:04.991Z,100839.63
2022-11-03T02:05:15.667Z,100819.34
2022-11-03T02:10:17.747Z,100817.06
2022-11-03T02:15:21.603Z,100803.00
2022-11-03T02:20:25.699Z,100811.16
2022-11-03T02:25:49.914Z,100803.16
2022-11-03T02:30:57.522Z,100803.50
2022-11-03T02:36:07.068Z,100789.81
2022-11-03T02:41:09.420Z,100779.13
2022-11-03T02:46:11.876Z,100786.38
2022-11-03T02:51:13.400Z,100769.53
2022-11-03T02:56:18.257Z,100751.84
2022-11-03T03:01:32.542Z,100751.97
2022-11-03T03:06:40.490Z,100743.50
2022-11-03T03:11:43.071Z,100724.00
2022-11-03T03:16:52.299Z,100718.81
2022-11-03T03:21:54.729Z,100715.88
2022-11-03T03:26:59.019Z,100720.84
2022-11-03T03:32:03.870Z,100713.59
2022-11-03T03:37:06.092Z,100710.56
2022-11-03T03:42:10.040Z,100709.25
2022-11-03T03:47:32.355Z,100702.09
2022-11-03T03:52:34.804Z,100689.97
2022-11-03T03:57:36.292Z,100684.84
2022-11-03T04:02:37.856Z,100674.19
2022-11-03T04:07:48.315Z,100661.41
2022-11-03T04:13:08.893Z,100662.09
2022-11-03T04:18:29.001Z,100647.13
2022-11-03T04:23:30.497Z,100638.06
2022-11-03T04:28:32.060Z,100632.31
2022-11-03T04:33:33.626Z,100630.41
2022-11-03T04:38:35.180Z,100632.25
2022-11-03T04:43:37.910Z,100618.47
2022-11-03T04:48:39.566Z,100612.25
2022-11-03T04:53:51.986Z,100613.59
2022-11-03T04:58:53.923Z,100603.06
2022-11-03T05:03:55.584Z,100612.75
2022-11-03T05:09:07.910Z,100604.41
2022-11-03T05:14:21.300Z,100599.31
2022-11-03T05:19:26.021Z,100609.38
2022-11-03T05:24:27.781Z,100602.31
2022-11-03T05:29:37.175Z,100603.50
2022-11-03T05:34:42.590Z,100605.72
2022-11-03T05:39:46.510Z,100593.38
2022-11-03T05:44:48.646Z,100590.22
2022-11-03T05:49:53.040Z,100583.81
2022-11-03T05:54:56.168Z,100581.75
2022-11-03T05:59:57.695Z,100571.59
2022-11-03T06:04:59.373Z,100575.47
2022-11-03T06:10:00.900Z,100582.22
2022-11-03T06:15:09.067Z,100582.72
2022-11-03T06:20:16.685Z,100577.78
2022-11-03T06:25:26.882Z,100560.44
2022-11-03T06:30:32.771Z,100573.28
2022-11-03T06:35:34.973Z,100566.38
2022-11-03T06:40:37.147Z,100566.28
2022-11-03T06:45:38.743Z,100555.16
2022-11-03T06:50:44.739Z,100560.72
2022-11-03T06:55:47.181Z,100552.16
2022-11-03T07:00:51.243Z,100544.84
2022-11-03T07:05:58.198Z,100538.34
2022-11-03T07:11:20.366Z,100541.19
2022-11-03T07:16:35.480Z,100532.00
2022-11-03T07:21:41.138Z,100518.66
2022-11-03T07:26:42.656Z,100515.44
2022-11-03T07:31:44.263Z,100514.13
2022-11-03T07:36:46.246Z,100491.69
2022-11-03T07:41:50.892Z,100485.72
2022-11-03T07:46:52.465Z,100494.78
2022-11-03T07:51:55.585Z,100492.69
2022-11-03T07:57:03.576Z,100485.81
2022-11-03T08:02:34.737Z,100481.78
2022-11-03T08:07:36.291Z,100472.66
2022-11-03T08:12:37.820Z,100461.38
2022-11-03T08:17:39.352Z,100458.56
2022-11-03T08:22:46.104Z,100445.06
2022-11-03T08:27:51.488Z,100441.41
2022-11-03T08:32:52.976Z,100428.00
2022-11-03T08:37:55.535Z,100429.13
2022-11-03T08:42:57.129Z,100425.75
2022-11-03T08:47:58.633Z,100416.44
2022-11-03T08:53:00.206Z,100413.63
2022-11-03T08:58:01.684Z,100409.09
2022-11-03T09:03:03.188Z,100404.81
2022-11-03T09:13:26.382Z,100383.44
2022-11-03T09:18:27.898Z,100376.25
2022-11-03T09:23:29.389Z,100381.00
2022-11-03T09:28:30.863Z,100369.25
2022-11-03T09:33:32.411Z,100356.63
2022-11-03T09:38:33.915Z,100343.91
2022-11-03T09:43:38.158Z,100347.81
2022-11-03T09:48:39.881Z,100342.38
2022-11-03T09:53:41.466Z,100330.22
2022-11-03T09:58:42.990Z,100319.72
2022-11-03T10:03:44.604Z,100317.34
2022-11-03T10:08:46.375Z,100306.91
2022-11-03T10:13:52.826Z,100291.28
2022-11-03T10:18:54.380Z,100290.56
2022-11-03T10:23:55.871Z,100276.69
2022-11-03T10:29:06.519Z,100255.16
2022-11-03T10:34:39.183Z,100251.19
2022-11-03T10:39:40.706Z,100232.44
2022-11-03T10:44:42.237Z,100224.47
2022-11-03T10:49:44.066Z,100229.50
2022-11-03T10:54:45.653Z,100208.22
2022-11-03T10:59:49.213Z,100204.03
2022-11-03T11:04:56.584Z,100189.97
2022-11-03T11:10:25.378Z,100198.38
2022-11-03T11:15:35.976Z,100174.88
2022-11-03T11:20:39.550Z,100164.16
2022-11-03T11:26:09.733Z,100148.38
2022-11-03T11:32:07.800Z,100137.44
2022-11-03T11:37:18.332Z,100132.25
2022-11-03T11:42:21.092Z,100125.50
2022-11-03T11:47:24.379Z,100119.13
2022-11-03T11:52:26.572Z,100096.78
2022-11-03T11:57:30.526Z,100091.75
2022-11-03T12:02:32.011Z,100090.56
2022-11-03T12:07:34.837Z,100080.50
2022-11-03T12:12:36.648Z,100082.00
2022-11-03T12:17:38.135Z,100074.75
2022-11-03T12:22:41.504Z,100052.59
2022-11-03T12:27:43.437Z,100053.91
2022-11-03T12:32:45.910Z,100035.94
2022-11-03T12:37:47.519Z,100043.47
2022-11-03T12:42:49.031Z,100023.97
2022-11-03T12:47:50.516Z,100030.34
2022-11-03T12:52:52.015Z,100018.91
2022-11-03T12:57:53.525Z,100005.63
2022-11-03T13:02:55.187Z,99998.94
2022-11-03T13:07:56.719Z,99981.13
2022-11-03T13:12:58.251Z,99985.81
2022-11-03T13:18:12.857Z,99979.97
2022-11-03T13:23:17.408Z,99971.38
2022-11-03T13:28:21.851Z,99955.25
2022-11-03T13:33:23.404Z,99938.25
2022-11-03T13:38:24.955Z,99922.97
2022-11-03T13:43:26.481Z,99908.38
2022-11-03T13:59:27.529Z,99879.56
2022-11-03T14:04:45.312Z,99868.81
2022-11-03T14:09:47.025Z,99874.19
2022-11-03T14:14:48.538Z,99864.13
2022-11-03T14:19:52.833Z,99859.94
2022-11-03T14:24:55.027Z,99854.56
2022-11-03T14:29:56.520Z,99837.78
2022-11-03T14:34:58.238Z,99832.91
2022-11-03T14:39:59.996Z,99832.25
2022-11-03T14:45:01.576Z,99825.56
2022-11-03T14:50:03.457Z,99821.56
2022-11-03T14:55:05.541Z,99823.56
2022-11-03T15:00:07.861Z,99809.16
2022-11-03T15:05:29.365Z,99808.53
2022-11-03T15:10:30.909Z,99783.66
2022-11-03T15:15:32.497Z,99758.56
2022-11-03T15:20:36.773Z,99743.09
2022-11-03T15:25:38.287Z,99724.81
2022-11-03T15:30:39.904Z,99705.69
2022-11-03T15:35:41.685Z,99708.53
2022-11-03T15:40:43.206Z,99720.28
2022-11-03T15:45:44.688Z,99711.22
2022-11-03T15:50:46.185Z,99696.66
2022-11-03T15:55:47.720Z,99690.06
2022-11-03T16:00:49.283Z,99680.91
2022-11-03T16:05:50.869Z,99667.28
2022-11-03T16:10:57.635Z,99671.16
2022-11-03T16:15:59.847Z,99662.63
2022-11-03T16:21:01.374Z,99652.63
2022-11-03T16:26:05.190Z,99646.03
2022-11-03T16:31:06.687Z,99652.13
2022-11-03T16:36:08.235Z,99647.59
2022-11-03T16:41:09.717Z,99645.56
2022-11-03T16:46:11.204Z,99635.31
2022-11-03T16:51:12.702Z,99625.78
2022-11-03T16:56:14.193Z,99624.94
2022-11-03T17:01:15.749Z,99610.72
2022-11-03T17:06:17.332Z,99600.75
2022-11-03T17:11:35.721Z,99590.56
2022-11-03T17:16:37.525Z,99577.16
2022-11-03T17:21:39.059Z,99565.38
2022-11-03T17:26:53.999Z,99546.94
2022-11-03T17:31:55.728Z,99543.09
2022-11-03T17:36:57.900Z,99529.00
2022-11-03T17:42:16.035Z,99526.78
2022-11-03T17:47:18.879Z,99514.72
2022-11-03T17:52:29.401Z,99509.38
2022-11-03T17:57:31.127Z,99504.28
2022-11-03T18:02:40.602Z,99489.84
2022-11-03T18:07:42.807Z,99489.00
2022-11-03T18:13:05.450Z,99473.75
2022-11-03T18:18:13.434Z,99469.09
2022-11-03T18:23:18.342Z,99458.81
2022-11-03T18:28:20.084Z,99444.75
2022-11-03T18:33:33.151Z,99438.38
2022-11-03T18:38:36.299Z,99425.59
2022-11-03T18:43:37.918Z,99414.66
2022-11-03T18:48:39.459Z,99399.56
2022-11-03T18:53:41.276Z,99398.00
2022-11-03T18:58:42.784Z,99392.47
2022-11-03T19:03:44.266Z,99390.78
2022-11-03T19:08:46.042Z,99376.34
2022-11-03T19:13:47.998Z,99374.28
2022-11-03T19:18:50.593Z,99371.44
2022-11-03T19:23:58.018Z,99365.59
2022-11-03T19:29:05.790Z,99352.81
2022-11-03T19:34:08.604Z,99346.44
2022-11-03T19:39:36.939Z,99332.56
2022-11-03T19:44:38.671Z,99328.19
2022-11-03T19:49:40.182Z,99325.69
2022-11-03T19:54:43.385Z,99313.28
2022-11-03T19:59:45.496Z,99313.94
2022-11-03T20:04:47.415Z,99297.00
2022-11-03T20:09:49.002Z,99291.44
2022-11-03T20:14:50.564Z,99282.09
2022-11-03T20:19:53.227Z,99270.88
2022-11-03T20:24:58.377Z,99279.78
2022-11-03T20:29:59.895Z,99275.06
2022-11-03T20:35:01.409Z,99267.38
2022-11-03T20:40:02.991Z,99262.31
2022-11-03T20:45:13.650Z,99269.50
2022-11-03T20:50:17.015Z,99268.50
2022-11-03T20:55:25.245Z,99257.97
2022-11-03T21:00:28.196Z,99250.38
2022-11-03T21:05:29.737Z,99246.94
2022-11-03T21:10:31.311Z,99250.38
2022-11-03T21:16:10.868Z,99242.53
2022-11-03T21:21:18.145Z,99246.13
2022-11-03T21:26:22.190Z,99240.00
2022-11-03T21:31:24.100Z,99247.59
2022-11-03T21:36:25.634Z,99239.72
2022-11-03T21:41:45.808Z,99228.81
2022-11-03T21:46:47.375Z,99223.81
2022-11-03T21:51:48.890Z,99216.59
2022-11-03T21:56:50.544Z,99226.97
2022-11-03T22:01:55.029Z,99211.25
2022-11-03T22:06:57.974Z,99208.16
2022-11-03T22:11:59.455Z,99197.16
2022-11-03T22:22:30.922Z,99195.16
2022-11-03T22:27:33.675Z,99175.31
2022-11-03T22:32:35.661Z,99168.66
2022-11-03T22:42:56.201Z,99156.25
2022-11-03T22:47:57.891Z,99144.78
2022-11-03T22:52:59.440Z,99143.94
2022-11-03T22:58:00.933Z,99141.06
2022-11-03T23:03:02.407Z,99136.34
2022-11-03T23:08:04.023Z,99127.00
2022-11-03T23:13:05.851Z,99108.88
2022-11-03T23:18:26.199Z,99113.84
2022-11-03T23:23:46.236Z,99107.66
2022-11-03T23:28:47.773Z,99104.72
2022-11-03T23:33:49.399Z,99105.75
2022-11-03T23:38:50.964Z,99096.22
2022-11-03T23:43:52.807Z,99078.66
2022-11-03T23:48:54.662Z,99068.34
2022-11-03T23:53:57.019Z,99069.19
2022-11-03T23:58:59.010Z,99061.31
